sensor_id;sensor_type;location;lat;lon;timestamp;P1;durP1;ratioP1;P2;durP2;ratioP2
35290;SDS011;21411;50.024;19.220;2024-01-30T00:00:41;301.70;;;191.90;;
35290;SDS011;21411;50.024;19.220;2024-01-30T00:03:28;305.70;;;191.50;;
35290;SDS011;21411;50.024;19.220;2024-01-30T00:05:56;302.60;;;194.20;;
35290;SDS011;21411;50.024;19.220;2024-01-30T00:08:23;284.90;;;183.20;;
35290;SDS011;21411;50.024;19.220;2024-01-30T00:10:49;294.40;;;187.10;;
35290;SDS011;21411;50.024;19.220;2024-01-30T00:13:16;270.60;;;171.00;;
35290;SDS011;21411;50.024;19.220;2024-01-30T00:15:44;265.60;;;166.90;;
35290;SDS011;21411;50.024;19.220;2024-01-30T00:18:11;268.60;;;168.90;;
35290;SDS011;21411;50.024;19.220;2024-01-30T00:20:38;278.30;;;172.50;;
35290;SDS011;21411;50.024;19.220;2024-01-30T00:23:04;284.90;;;178.70;;
35290;SDS011;21411;50.024;19.220;2024-01-30T00:25:31;286.60;;;177.70;;
35290;SDS011;21411;50.024;19.220;2024-01-30T00:27:59;285.10;;;176.80;;
35290;SDS011;21411;50.024;19.220;2024-01-30T00:30:26;275.70;;;179.60;;
35290;SDS011;21411;50.024;19.220;2024-01-30T00:32:53;281.90;;;175.10;;
35290;SDS011;21411;50.024;19.220;2024-01-30T00:35:20;280.70;;;169.90;;
35290;SDS011;21411;50.024;19.220;2024-01-30T00:37:48;290.60;;;177.20;;
35290;SDS011;21411;50.024;19.220;2024-01-30T00:40:15;281.80;;;177.40;;
35290;SDS011;21411;50.024;19.220;2024-01-30T00:42:42;276.00;;;168.30;;
35290;SDS011;21411;50.024;19.220;2024-01-30T00:45:13;278.30;;;177.00;;
35290;SDS011;21411;50.024;19.220;2024-01-30T00:47:40;266.40;;;170.20;;
35290;SDS011;21411;50.024;19.220;2024-01-30T00:50:07;272.60;;;175.00;;
35290;SDS011;21411;50.024;19.220;2024-01-30T00:52:34;269.50;;;168.40;;
35290;SDS011;21411;50.024;19.220;2024-01-30T00:55:02;275.90;;;174.80;;
35290;SDS011;21411;50.024;19.220;2024-01-30T00:57:29;285.90;;;180.30;;
35290;SDS011;21411;50.024;19.220;2024-01-30T00:59:55;259.60;;;166.50;;
35290;SDS011;21411;50.024;19.220;2024-01-30T01:02:22;270.80;;;175.00;;
35290;SDS011;21411;50.024;19.220;2024-01-30T01:04:48;263.00;;;170.00;;
35290;SDS011;21411;50.024;19.220;2024-01-30T01:07:15;269.30;;;169.40;;
35290;SDS011;21411;50.024;19.220;2024-01-30T01:09:41;271.10;;;165.80;;
35290;SDS011;21411;50.024;19.220;2024-01-30T01:12:08;286.10;;;177.20;;
35290;SDS011;21411;50.024;19.220;2024-01-30T01:14:34;278.30;;;168.20;;
35290;SDS011;21411;50.024;19.220;2024-01-30T01:17:02;256.30;;;159.50;;
35290;SDS011;21411;50.024;19.220;2024-01-30T01:19:29;247.20;;;154.80;;
35290;SDS011;21411;50.024;19.220;2024-01-30T01:21:55;255.30;;;161.50;;
35290;SDS011;21411;50.024;19.220;2024-01-30T01:24:22;263.50;;;161.90;;
35290;SDS011;21411;50.024;19.220;2024-01-30T01:26:49;264.90;;;165.30;;
35290;SDS011;21411;50.024;19.220;2024-01-30T01:29:15;261.90;;;158.30;;
35290;SDS011;21411;50.024;19.220;2024-01-30T01:31:42;269.60;;;161.60;;
35290;SDS011;21411;50.024;19.220;2024-01-30T01:36:39;263.80;;;162.00;;
35290;SDS011;21411;50.024;19.220;2024-01-30T01:39:05;270.10;;;166.20;;
35290;SDS011;21411;50.024;19.220;2024-01-30T01:41:32;276.30;;;167.80;;
35290;SDS011;21411;50.024;19.220;2024-01-30T01:43:59;311.50;;;193.60;;
35290;SDS011;21411;50.024;19.220;2024-01-30T01:46:27;279.40;;;173.30;;
35290;SDS011;21411;50.024;19.220;2024-01-30T01:48:56;289.00;;;177.20;;
35290;SDS011;21411;50.024;19.220;2024-01-30T01:51:23;282.50;;;177.60;;
35290;SDS011;21411;50.024;19.220;2024-01-30T01:53:53;279.20;;;172.40;;
35290;SDS011;21411;50.024;19.220;2024-01-30T01:56:22;314.20;;;196.90;;
35290;SDS011;21411;50.024;19.220;2024-01-30T01:58:49;302.40;;;182.60;;
35290;SDS011;21411;50.024;19.220;2024-01-30T02:01:18;309.50;;;189.40;;
35290;SDS011;21411;50.024;19.220;2024-01-30T02:03:46;304.30;;;190.30;;
35290;SDS011;21411;50.024;19.220;2024-01-30T02:06:14;296.30;;;184.00;;
35290;SDS011;21411;50.024;19.220;2024-01-30T02:08:41;291.10;;;179.40;;
35290;SDS011;21411;50.024;19.220;2024-01-30T02:11:08;268.60;;;173.30;;
35290;SDS011;21411;50.024;19.220;2024-01-30T02:13:36;277.60;;;175.10;;
35290;SDS011;21411;50.024;19.220;2024-01-30T02:16:03;276.10;;;174.80;;
35290;SDS011;21411;50.024;19.220;2024-01-30T02:18:30;272.00;;;166.80;;
35290;SDS011;21411;50.024;19.220;2024-01-30T02:20:56;270.10;;;166.00;;
35290;SDS011;21411;50.024;19.220;2024-01-30T02:23:27;262.70;;;169.80;;
35290;SDS011;21411;50.024;19.220;2024-01-30T02:25:54;272.10;;;169.60;;
35290;SDS011;21411;50.024;19.220;2024-01-30T02:28:21;254.80;;;153.70;;
35290;SDS011;21411;50.024;19.220;2024-01-30T02:30:47;254.30;;;162.00;;
35290;SDS011;21411;50.024;19.220;2024-01-30T02:33:14;260.60;;;165.30;;
35290;SDS011;21411;50.024;19.220;2024-01-30T02:35:41;262.90;;;161.00;;
35290;SDS011;21411;50.024;19.220;2024-01-30T02:38:07;262.60;;;160.10;;
35290;SDS011;21411;50.024;19.220;2024-01-30T02:40:34;262.10;;;160.50;;
35290;SDS011;21411;50.024;19.220;2024-01-30T02:43:01;274.40;;;168.60;;
35290;SDS011;21411;50.024;19.220;2024-01-30T02:45:29;267.50;;;167.70;;
35290;SDS011;21411;50.024;19.220;2024-01-30T02:47:55;260.40;;;164.60;;
35290;SDS011;21411;50.024;19.220;2024-01-30T02:50:22;265.80;;;163.70;;
35290;SDS011;21411;50.024;19.220;2024-01-30T02:52:49;266.70;;;162.60;;
35290;SDS011;21411;50.024;19.220;2024-01-30T02:55:15;256.10;;;162.60;;
35290;SDS011;21411;50.024;19.220;2024-01-30T02:57:44;260.10;;;160.90;;
35290;SDS011;21411;50.024;19.220;2024-01-30T03:03:14;258.70;;;157.60;;
35290;SDS011;21411;50.024;19.220;2024-01-30T03:05:42;247.70;;;151.20;;
35290;SDS011;21411;50.024;19.220;2024-01-30T03:08:08;250.00;;;154.30;;
35290;SDS011;21411;50.024;19.220;2024-01-30T03:10:35;243.90;;;148.80;;
35290;SDS011;21411;50.024;19.220;2024-01-30T03:13:01;246.50;;;153.50;;
35290;SDS011;21411;50.024;19.220;2024-01-30T03:15:28;241.50;;;148.20;;
35290;SDS011;21411;50.024;19.220;2024-01-30T03:17:54;234.70;;;148.70;;
35290;SDS011;21411;50.024;19.220;2024-01-30T03:20:21;250.80;;;150.10;;
35290;SDS011;21411;50.024;19.220;2024-01-30T03:22:48;237.50;;;146.70;;
35290;SDS011;21411;50.024;19.220;2024-01-30T03:25:14;249.20;;;150.90;;
35290;SDS011;21411;50.024;19.220;2024-01-30T03:27:41;232.20;;;144.70;;
35290;SDS011;21411;50.024;19.220;2024-01-30T03:30:08;241.20;;;148.70;;
35290;SDS011;21411;50.024;19.220;2024-01-30T03:32:34;231.50;;;145.40;;
35290;SDS011;21411;50.024;19.220;2024-01-30T03:35:01;228.50;;;142.00;;
35290;SDS011;21411;50.024;19.220;2024-01-30T03:37:28;234.70;;;143.20;;
35290;SDS011;21411;50.024;19.220;2024-01-30T03:39:54;234.40;;;139.00;;
35290;SDS011;21411;50.024;19.220;2024-01-30T03:42:21;222.80;;;140.00;;
35290;SDS011;21411;50.024;19.220;2024-01-30T03:44:48;238.80;;;146.40;;
35290;SDS011;21411;50.024;19.220;2024-01-30T03:47:18;237.00;;;147.20;;
35290;SDS011;21411;50.024;19.220;2024-01-30T03:49:45;232.30;;;145.90;;
35290;SDS011;21411;50.024;19.220;2024-01-30T03:52:12;234.00;;;144.20;;
35290;SDS011;21411;50.024;19.220;2024-01-30T03:54:39;227.10;;;143.50;;
35290;SDS011;21411;50.024;19.220;2024-01-30T03:57:05;232.50;;;151.20;;
35290;SDS011;21411;50.024;19.220;2024-01-30T03:59:32;231.00;;;144.40;;
35290;SDS011;21411;50.024;19.220;2024-01-30T04:01:59;243.50;;;150.70;;
35290;SDS011;21411;50.024;19.220;2024-01-30T04:04:26;233.00;;;144.90;;
35290;SDS011;21411;50.024;19.220;2024-01-30T04:06:52;234.10;;;148.10;;
35290;SDS011;21411;50.024;19.220;2024-01-30T04:09:19;243.50;;;149.60;;
35290;SDS011;21411;50.024;19.220;2024-01-30T04:11:46;236.30;;;144.70;;
35290;SDS011;21411;50.024;19.220;2024-01-30T04:14:12;235.20;;;145.70;;
35290;SDS011;21411;50.024;19.220;2024-01-30T04:16:39;248.20;;;152.40;;
35290;SDS011;21411;50.024;19.220;2024-01-30T04:19:05;243.10;;;148.00;;
35290;SDS011;21411;50.024;19.220;2024-01-30T04:21:32;236.10;;;146.20;;
35290;SDS011;21411;50.024;19.220;2024-01-30T04:23:58;235.60;;;148.70;;
35290;SDS011;21411;50.024;19.220;2024-01-30T04:26:25;241.00;;;144.80;;
35290;SDS011;21411;50.024;19.220;2024-01-30T04:28:52;230.00;;;144.80;;
35290;SDS011;21411;50.024;19.220;2024-01-30T04:31:18;228.60;;;145.30;;
35290;SDS011;21411;50.024;19.220;2024-01-30T04:33:45;236.90;;;145.30;;
35290;SDS011;21411;50.024;19.220;2024-01-30T04:36:11;229.60;;;144.60;;
35290;SDS011;21411;50.024;19.220;2024-01-30T04:38:38;224.40;;;142.40;;
35290;SDS011;21411;50.024;19.220;2024-01-30T04:41:05;224.90;;;137.70;;
35290;SDS011;21411;50.024;19.220;2024-01-30T04:43:32;218.80;;;135.10;;
35290;SDS011;21411;50.024;19.220;2024-01-30T04:45:58;217.90;;;134.80;;
35290;SDS011;21411;50.024;19.220;2024-01-30T04:48:25;226.20;;;139.60;;
35290;SDS011;21411;50.024;19.220;2024-01-30T04:50:52;219.60;;;132.80;;
35290;SDS011;21411;50.024;19.220;2024-01-30T04:53:18;219.80;;;136.80;;
35290;SDS011;21411;50.024;19.220;2024-01-30T04:55:45;204.40;;;133.20;;
35290;SDS011;21411;50.024;19.220;2024-01-30T04:58:11;219.70;;;131.70;;
35290;SDS011;21411;50.024;19.220;2024-01-30T05:00:38;217.60;;;136.50;;
35290;SDS011;21411;50.024;19.220;2024-01-30T05:03:05;211.20;;;134.30;;
35290;SDS011;21411;50.024;19.220;2024-01-30T05:05:31;219.60;;;139.40;;
35290;SDS011;21411;50.024;19.220;2024-01-30T05:07:58;229.30;;;143.70;;
35290;SDS011;21411;50.024;19.220;2024-01-30T05:10:25;234.40;;;146.80;;
35290;SDS011;21411;50.024;19.220;2024-01-30T05:12:51;227.50;;;141.90;;
35290;SDS011;21411;50.024;19.220;2024-01-30T05:15:18;229.10;;;143.10;;
35290;SDS011;21411;50.024;19.220;2024-01-30T05:17:45;235.30;;;149.70;;
35290;SDS011;21411;50.024;19.220;2024-01-30T05:20:12;222.60;;;143.70;;
35290;SDS011;21411;50.024;19.220;2024-01-30T05:22:38;223.00;;;138.30;;
35290;SDS011;21411;50.024;19.220;2024-01-30T05:25:12;219.70;;;138.60;;
35290;SDS011;21411;50.024;19.220;2024-01-30T05:27:39;226.60;;;135.90;;
35290;SDS011;21411;50.024;19.220;2024-01-30T05:30:06;225.40;;;139.20;;
35290;SDS011;21411;50.024;19.220;2024-01-30T05:32:33;216.50;;;136.00;;
35290;SDS011;21411;50.024;19.220;2024-01-30T05:35:00;211.20;;;134.60;;
35290;SDS011;21411;50.024;19.220;2024-01-30T05:37:26;222.80;;;136.60;;
35290;SDS011;21411;50.024;19.220;2024-01-30T05:39:53;222.80;;;138.00;;
35290;SDS011;21411;50.024;19.220;2024-01-30T05:42:19;221.20;;;136.70;;
35290;SDS011;21411;50.024;19.220;2024-01-30T05:44:46;236.20;;;143.60;;
35290;SDS011;21411;50.024;19.220;2024-01-30T05:47:13;222.80;;;140.20;;
35290;SDS011;21411;50.024;19.220;2024-01-30T05:49:40;221.70;;;135.90;;
35290;SDS011;21411;50.024;19.220;2024-01-30T05:52:06;240.70;;;148.70;;
35290;SDS011;21411;50.024;19.220;2024-01-30T05:54:33;238.30;;;151.60;;
35290;SDS011;21411;50.024;19.220;2024-01-30T05:57:00;236.80;;;146.90;;
35290;SDS011;21411;50.024;19.220;2024-01-30T05:59:27;228.80;;;145.50;;
35290;SDS011;21411;50.024;19.220;2024-01-30T06:01:53;232.90;;;148.70;;
35290;SDS011;21411;50.024;19.220;2024-01-30T06:04:20;229.40;;;145.50;;
35290;SDS011;21411;50.024;19.220;2024-01-30T06:06:46;224.60;;;143.30;;
35290;SDS011;21411;50.024;19.220;2024-01-30T06:09:13;229.70;;;142.50;;
35290;SDS011;21411;50.024;19.220;2024-01-30T06:11:40;218.70;;;142.60;;
35290;SDS011;21411;50.024;19.220;2024-01-30T06:14:06;243.70;;;148.50;;
35290;SDS011;21411;50.024;19.220;2024-01-30T06:16:33;229.70;;;145.30;;
35290;SDS011;21411;50.024;19.220;2024-01-30T06:19:00;239.10;;;150.50;;
35290;SDS011;21411;50.024;19.220;2024-01-30T06:21:26;226.90;;;144.70;;
35290;SDS011;21411;50.024;19.220;2024-01-30T06:23:53;239.60;;;147.40;;
35290;SDS011;21411;50.024;19.220;2024-01-30T06:26:20;225.60;;;145.80;;
35290;SDS011;21411;50.024;19.220;2024-01-30T06:28:46;239.50;;;153.20;;
35290;SDS011;21411;50.024;19.220;2024-01-30T06:31:13;240.10;;;149.60;;
35290;SDS011;21411;50.024;19.220;2024-01-30T06:33:39;229.30;;;148.50;;
35290;SDS011;21411;50.024;19.220;2024-01-30T06:36:08;240.60;;;149.40;;
35290;SDS011;21411;50.024;19.220;2024-01-30T06:38:35;234.70;;;147.20;;
35290;SDS011;21411;50.024;19.220;2024-01-30T06:41:01;237.70;;;148.10;;
35290;SDS011;21411;50.024;19.220;2024-01-30T06:43:28;236.80;;;151.60;;
35290;SDS011;21411;50.024;19.220;2024-01-30T06:45:54;237.30;;;149.20;;
35290;SDS011;21411;50.024;19.220;2024-01-30T06:48:21;229.90;;;150.50;;
35290;SDS011;21411;50.024;19.220;2024-01-30T06:50:48;238.90;;;151.60;;
35290;SDS011;21411;50.024;19.220;2024-01-30T06:53:15;227.50;;;145.50;;
35290;SDS011;21411;50.024;19.220;2024-01-30T06:55:42;243.60;;;153.40;;
35290;SDS011;21411;50.024;19.220;2024-01-30T06:58:08;234.40;;;152.40;;
35290;SDS011;21411;50.024;19.220;2024-01-30T07:00:35;244.60;;;153.50;;
35290;SDS011;21411;50.024;19.220;2024-01-30T07:03:02;252.70;;;158.90;;
35290;SDS011;21411;50.024;19.220;2024-01-30T07:05:29;252.70;;;160.10;;
35290;SDS011;21411;50.024;19.220;2024-01-30T07:07:56;243.40;;;156.70;;
35290;SDS011;21411;50.024;19.220;2024-01-30T07:10:22;240.90;;;156.00;;
35290;SDS011;21411;50.024;19.220;2024-01-30T07:12:49;247.60;;;158.70;;
35290;SDS011;21411;50.024;19.220;2024-01-30T07:15:15;254.60;;;162.40;;
35290;SDS011;21411;50.024;19.220;2024-01-30T07:17:46;274.90;;;175.50;;
35290;SDS011;21411;50.024;19.220;2024-01-30T07:20:12;277.10;;;175.80;;
35290;SDS011;21411;50.024;19.220;2024-01-30T07:22:39;274.40;;;174.70;;
35290;SDS011;21411;50.024;19.220;2024-01-30T07:25:06;262.30;;;169.60;;
35290;SDS011;21411;50.024;19.220;2024-01-30T07:27:33;276.80;;;178.80;;
35290;SDS011;21411;50.024;19.220;2024-01-30T07:30:00;283.80;;;187.10;;
35290;SDS011;21411;50.024;19.220;2024-01-30T07:32:26;287.40;;;193.40;;
35290;SDS011;21411;50.024;19.220;2024-01-30T07:34:53;296.90;;;193.00;;
35290;SDS011;21411;50.024;19.220;2024-01-30T07:37:19;286.10;;;187.10;;
35290;SDS011;21411;50.024;19.220;2024-01-30T07:39:46;304.90;;;202.70;;
35290;SDS011;21411;50.024;19.220;2024-01-30T07:42:13;268.20;;;179.30;;
35290;SDS011;21411;50.024;19.220;2024-01-30T07:44:40;289.90;;;184.30;;
35290;SDS011;21411;50.024;19.220;2024-01-30T07:47:06;257.70;;;175.40;;
35290;SDS011;21411;50.024;19.220;2024-01-30T07:49:34;270.90;;;176.20;;
35290;SDS011;21411;50.024;19.220;2024-01-30T07:52:00;260.30;;;172.80;;
35290;SDS011;21411;50.024;19.220;2024-01-30T07:54:30;268.10;;;175.50;;
35290;SDS011;21411;50.024;19.220;2024-01-30T07:57:00;267.10;;;174.70;;
35290;SDS011;21411;50.024;19.220;2024-01-30T07:59:27;247.10;;;173.20;;
35290;SDS011;21411;50.024;19.220;2024-01-30T08:01:54;258.00;;;178.00;;
35290;SDS011;21411;50.024;19.220;2024-01-30T08:04:20;244.20;;;171.40;;
35290;SDS011;21411;50.024;19.220;2024-01-30T08:06:47;279.40;;;195.70;;
35290;SDS011;21411;50.024;19.220;2024-01-30T08:09:14;247.40;;;173.40;;
35290;SDS011;21411;50.024;19.220;2024-01-30T08:11:40;263.50;;;179.00;;
35290;SDS011;21411;50.024;19.220;2024-01-30T08:14:07;246.30;;;166.50;;
35290;SDS011;21411;50.024;19.220;2024-01-30T08:16:34;250.20;;;169.40;;
35290;SDS011;21411;50.024;19.220;2024-01-30T08:19:00;241.70;;;169.00;;
35290;SDS011;21411;50.024;19.220;2024-01-30T08:21:27;229.30;;;160.30;;
35290;SDS011;21411;50.024;19.220;2024-01-30T08:23:54;225.60;;;163.60;;
35290;SDS011;21411;50.024;19.220;2024-01-30T08:26:20;228.50;;;156.00;;
35290;SDS011;21411;50.024;19.220;2024-01-30T08:28:47;211.20;;;150.40;;
35290;SDS011;21411;50.024;19.220;2024-01-30T08:31:13;193.30;;;135.90;;
35290;SDS011;21411;50.024;19.220;2024-01-30T08:33:40;182.60;;;128.90;;
35290;SDS011;21411;50.024;19.220;2024-01-30T08:36:07;184.40;;;128.80;;
35290;SDS011;21411;50.024;19.220;2024-01-30T08:38:33;177.00;;;127.60;;
35290;SDS011;21411;50.024;19.220;2024-01-30T08:41:00;170.50;;;127.90;;
35290;SDS011;21411;50.024;19.220;2024-01-30T08:43:27;160.40;;;122.60;;
35290;SDS011;21411;50.024;19.220;2024-01-30T08:45:53;153.10;;;117.00;;
35290;SDS011;21411;50.024;19.220;2024-01-30T08:48:20;146.50;;;110.90;;
35290;SDS011;21411;50.024;19.220;2024-01-30T08:50:47;100.40;;;76.90;;
35290;SDS011;21411;50.024;19.220;2024-01-30T08:53:14;112.00;;;77.60;;
35290;SDS011;21411;50.024;19.220;2024-01-30T08:55:41;105.30;;;73.40;;
35290;SDS011;21411;50.024;19.220;2024-01-30T08:58:07;106.10;;;75.20;;
35290;SDS011;21411;50.024;19.220;2024-01-30T09:00:34;96.80;;;69.30;;
35290;SDS011;21411;50.024;19.220;2024-01-30T09:03:00;83.20;;;58.90;;
35290;SDS011;21411;50.024;19.220;2024-01-30T09:05:27;79.50;;;58.30;;
35290;SDS011;21411;50.024;19.220;2024-01-30T09:07:54;83.30;;;56.40;;
35290;SDS011;21411;50.024;19.220;2024-01-30T09:10:21;70.10;;;51.20;;
35290;SDS011;21411;50.024;19.220;2024-01-30T09:12:47;70.10;;;49.50;;
35290;SDS011;21411;50.024;19.220;2024-01-30T09:15:15;69.80;;;50.60;;
35290;SDS011;21411;50.024;19.220;2024-01-30T09:17:42;69.80;;;48.90;;
35290;SDS011;21411;50.024;19.220;2024-01-30T09:20:08;69.50;;;52.00;;
35290;SDS011;21411;50.024;19.220;2024-01-30T09:22:35;70.40;;;52.20;;
35290;SDS011;21411;50.024;19.220;2024-01-30T09:25:02;69.60;;;54.60;;
35290;SDS011;21411;50.024;19.220;2024-01-30T09:27:29;73.30;;;54.60;;
35290;SDS011;21411;50.024;19.220;2024-01-30T09:29:55;68.50;;;49.80;;
35290;SDS011;21411;50.024;19.220;2024-01-30T09:32:22;76.00;;;53.90;;
35290;SDS011;21411;50.024;19.220;2024-01-30T09:34:48;74.30;;;52.50;;
35290;SDS011;21411;50.024;19.220;2024-01-30T09:37:15;68.40;;;50.50;;
35290;SDS011;21411;50.024;19.220;2024-01-30T09:39:44;68.30;;;48.40;;
35290;SDS011;21411;50.024;19.220;2024-01-30T09:42:17;61.70;;;47.40;;
35290;SDS011;21411;50.024;19.220;2024-01-30T09:44:52;60.40;;;42.00;;
35290;SDS011;21411;50.024;19.220;2024-01-30T09:47:19;61.70;;;42.40;;
35290;SDS011;21411;50.024;19.220;2024-01-30T09:49:46;61.90;;;43.20;;
35290;SDS011;21411;50.024;19.220;2024-01-30T09:52:14;59.00;;;42.30;;
35290;SDS011;21411;50.024;19.220;2024-01-30T09:54:41;61.40;;;44.60;;
35290;SDS011;21411;50.024;19.220;2024-01-30T09:57:08;64.40;;;44.60;;
35290;SDS011;21411;50.024;19.220;2024-01-30T09:59:35;59.30;;;42.90;;
35290;SDS011;21411;50.024;19.220;2024-01-30T10:02:02;66.00;;;44.60;;
35290;SDS011;21411;50.024;19.220;2024-01-30T10:04:31;64.00;;;43.90;;
35290;SDS011;21411;50.024;19.220;2024-01-30T10:06:57;60.90;;;41.50;;
35290;SDS011;21411;50.024;19.220;2024-01-30T10:09:28;55.20;;;40.90;;
35290;SDS011;21411;50.024;19.220;2024-01-30T10:11:58;59.60;;;41.50;;
35290;SDS011;21411;50.024;19.220;2024-01-30T10:14:25;53.40;;;38.40;;
35290;SDS011;21411;50.024;19.220;2024-01-30T10:16:52;53.00;;;39.70;;
35290;SDS011;21411;50.024;19.220;2024-01-30T10:19:19;63.50;;;40.50;;
35290;SDS011;21411;50.024;19.220;2024-01-30T10:21:45;55.10;;;37.10;;
35290;SDS011;21411;50.024;19.220;2024-01-30T10:24:12;49.90;;;35.60;;
35290;SDS011;21411;50.024;19.220;2024-01-30T10:26:40;51.20;;;37.00;;
35290;SDS011;21411;50.024;19.220;2024-01-30T10:29:06;57.90;;;36.30;;
35290;SDS011;21411;50.024;19.220;2024-01-30T10:31:33;54.50;;;36.10;;
35290;SDS011;21411;50.024;19.220;2024-01-30T10:34:00;50.20;;;34.80;;
35290;SDS011;21411;50.024;19.220;2024-01-30T10:36:29;52.90;;;35.40;;
35290;SDS011;21411;50.024;19.220;2024-01-30T10:39:01;58.20;;;37.80;;
35290;SDS011;21411;50.024;19.220;2024-01-30T10:41:28;55.50;;;38.50;;
35290;SDS011;21411;50.024;19.220;2024-01-30T10:44:08;52.60;;;38.20;;
35290;SDS011;21411;50.024;19.220;2024-01-30T10:46:35;50.30;;;36.90;;
35290;SDS011;21411;50.024;19.220;2024-01-30T10:49:05;53.50;;;37.90;;
35290;SDS011;21411;50.024;19.220;2024-01-30T10:51:32;58.40;;;38.70;;
35290;SDS011;21411;50.024;19.220;2024-01-30T10:54:01;55.00;;;38.90;;
35290;SDS011;21411;50.024;19.220;2024-01-30T10:56:32;55.40;;;38.50;;
35290;SDS011;21411;50.024;19.220;2024-01-30T10:59:00;52.30;;;38.10;;
35290;SDS011;21411;50.024;19.220;2024-01-30T11:01:27;49.70;;;36.50;;
35290;SDS011;21411;50.024;19.220;2024-01-30T11:03:55;57.80;;;38.70;;
35290;SDS011;21411;50.024;19.220;2024-01-30T11:06:23;52.10;;;36.20;;
35290;SDS011;21411;50.024;19.220;2024-01-30T11:09:03;50.00;;;36.20;;
35290;SDS011;21411;50.024;19.220;2024-01-30T11:11:51;55.40;;;37.80;;
35290;SDS011;21411;50.024;19.220;2024-01-30T11:14:26;49.80;;;34.30;;
35290;SDS011;21411;50.024;19.220;2024-01-30T11:16:58;46.80;;;33.90;;
35290;SDS011;21411;50.024;19.220;2024-01-30T11:19:26;49.50;;;34.40;;
35290;SDS011;21411;50.024;19.220;2024-01-30T11:21:53;64.40;;;44.30;;
35290;SDS011;21411;50.024;19.220;2024-01-30T11:24:20;51.60;;;38.60;;
35290;SDS011;21411;50.024;19.220;2024-01-30T11:26:55;54.20;;;34.80;;
35290;SDS011;21411;50.024;19.220;2024-01-30T11:29:27;53.40;;;36.10;;
35290;SDS011;21411;50.024;19.220;2024-01-30T11:31:55;47.90;;;35.10;;
35290;SDS011;21411;50.024;19.220;2024-01-30T11:34:23;55.60;;;37.30;;
35290;SDS011;21411;50.024;19.220;2024-01-30T11:36:55;50.90;;;36.80;;
35290;SDS011;21411;50.024;19.220;2024-01-30T11:39:25;51.80;;;36.50;;
35290;SDS011;21411;50.024;19.220;2024-01-30T11:41:52;53.60;;;37.80;;
35290;SDS011;21411;50.024;19.220;2024-01-30T11:44:20;47.70;;;35.40;;
35290;SDS011;21411;50.024;19.220;2024-01-30T11:46:51;49.60;;;34.50;;
35290;SDS011;21411;50.024;19.220;2024-01-30T11:49:18;52.70;;;36.60;;
35290;SDS011;21411;50.024;19.220;2024-01-30T11:51:45;43.40;;;30.40;;
35290;SDS011;21411;50.024;19.220;2024-01-30T11:54:15;46.80;;;34.10;;
35290;SDS011;21411;50.024;19.220;2024-01-30T11:56:42;46.10;;;33.00;;
35290;SDS011;21411;50.024;19.220;2024-01-30T11:59:09;46.20;;;33.80;;
35290;SDS011;21411;50.024;19.220;2024-01-30T12:01:36;47.40;;;34.30;;
35290;SDS011;21411;50.024;19.220;2024-01-30T12:04:03;50.60;;;34.60;;
35290;SDS011;21411;50.024;19.220;2024-01-30T12:06:34;49.80;;;33.10;;
35290;SDS011;21411;50.024;19.220;2024-01-30T12:09:02;43.80;;;31.50;;
35290;SDS011;21411;50.024;19.220;2024-01-30T12:11:43;34.10;;;24.60;;
35290;SDS011;21411;50.024;19.220;2024-01-30T12:14:14;29.00;;;21.20;;
35290;SDS011;21411;50.024;19.220;2024-01-30T12:16:41;37.60;;;26.50;;
35290;SDS011;21411;50.024;19.220;2024-01-30T12:19:08;36.10;;;27.20;;
35290;SDS011;21411;50.024;19.220;2024-01-30T12:21:34;35.00;;;26.50;;
35290;SDS011;21411;50.024;19.220;2024-01-30T12:24:02;40.60;;;27.50;;
35290;SDS011;21411;50.024;19.220;2024-01-30T12:26:29;41.60;;;29.80;;
35290;SDS011;21411;50.024;19.220;2024-01-30T12:28:55;39.10;;;28.50;;
35290;SDS011;21411;50.024;19.220;2024-01-30T12:31:27;40.40;;;28.80;;
35290;SDS011;21411;50.024;19.220;2024-01-30T12:33:54;39.70;;;28.50;;
35290;SDS011;21411;50.024;19.220;2024-01-30T12:36:24;43.20;;;28.60;;
35290;SDS011;21411;50.024;19.220;2024-01-30T12:38:50;35.80;;;24.40;;
35290;SDS011;21411;50.024;19.220;2024-01-30T12:41:17;30.10;;;20.20;;
35290;SDS011;21411;50.024;19.220;2024-01-30T12:43:45;26.20;;;18.50;;
35290;SDS011;21411;50.024;19.220;2024-01-30T12:46:16;26.30;;;17.00;;
35290;SDS011;21411;50.024;19.220;2024-01-30T12:48:43;27.20;;;18.00;;
35290;SDS011;21411;50.024;19.220;2024-01-30T12:51:10;19.90;;;15.00;;
35290;SDS011;21411;50.024;19.220;2024-01-30T12:53:37;18.40;;;13.30;;
35290;SDS011;21411;50.024;19.220;2024-01-30T12:56:03;18.10;;;12.80;;
35290;SDS011;21411;50.024;19.220;2024-01-30T12:58:30;17.80;;;12.60;;
35290;SDS011;21411;50.024;19.220;2024-01-30T13:00:56;17.60;;;11.70;;
35290;SDS011;21411;50.024;19.220;2024-01-30T13:03:23;15.20;;;10.40;;
35290;SDS011;21411;50.024;19.220;2024-01-30T13:05:50;14.70;;;10.60;;
35290;SDS011;21411;50.024;19.220;2024-01-30T13:08:17;14.70;;;10.30;;
35290;SDS011;21411;50.024;19.220;2024-01-30T13:10:43;11.30;;;9.30;;
35290;SDS011;21411;50.024;19.220;2024-01-30T13:13:10;12.90;;;10.30;;
35290;SDS011;21411;50.024;19.220;2024-01-30T13:15:36;14.20;;;10.80;;
35290;SDS011;21411;50.024;19.220;2024-01-30T13:18:03;13.00;;;10.20;;
35290;SDS011;21411;50.024;19.220;2024-01-30T13:20:31;13.60;;;10.50;;
35290;SDS011;21411;50.024;19.220;2024-01-30T13:22:58;15.10;;;10.20;;
35290;SDS011;21411;50.024;19.220;2024-01-30T13:25:24;15.60;;;10.20;;
35290;SDS011;21411;50.024;19.220;2024-01-30T13:27:51;15.50;;;10.40;;
35290;SDS011;21411;50.024;19.220;2024-01-30T13:30:18;14.00;;;10.00;;
35290;SDS011;21411;50.024;19.220;2024-01-30T13:32:44;11.50;;;10.30;;
35290;SDS011;21411;50.024;19.220;2024-01-30T13:35:12;15.30;;;10.80;;
35290;SDS011;21411;50.024;19.220;2024-01-30T13:37:39;14.40;;;10.00;;
35290;SDS011;21411;50.024;19.220;2024-01-30T13:40:05;14.50;;;11.20;;
35290;SDS011;21411;50.024;19.220;2024-01-30T13:42:35;15.30;;;11.20;;
35290;SDS011;21411;50.024;19.220;2024-01-30T13:45:02;15.60;;;11.00;;
35290;SDS011;21411;50.024;19.220;2024-01-30T13:47:29;15.40;;;11.10;;
35290;SDS011;21411;50.024;19.220;2024-01-30T13:49:56;14.00;;;11.20;;
35290;SDS011;21411;50.024;19.220;2024-01-30T13:52:22;14.00;;;10.50;;
35290;SDS011;21411;50.024;19.220;2024-01-30T13:54:49;16.10;;;11.00;;
35290;SDS011;21411;50.024;19.220;2024-01-30T13:57:16;15.50;;;11.00;;
35290;SDS011;21411;50.024;19.220;2024-01-30T13:59:42;15.20;;;10.70;;